KSYN/SYN METAR and TAF weather

Enter ICAO airport designator
Station Type Date Time Source
KSYN METAR 2019/08/18 09:15 UTC NOAA

KSYN 180915Z AUTO 36010G14KT 5SM -RA BKN008 BKN017 OVC049 18/17 A2960 RMK AO2 P0003 T01750166


Station Type Date Time Source
KSYN Decoded METAR 2019/08/18 09:15 UTC NOAA

Station name not available
Aug 18, 2019 - 05:15 AM EDT / 2019.08.18 0915 UTC
Wind: from the N (360 degrees) at 12 MPH (10 KT) gusting to 16 MPH (14 KT):0
Visibility: 5 mile(s):0
Sky conditions: overcast
Weather: light rain
Precipitation last hour: 0.03 inches
Temperature: 63.5 F (17.5 C)
Dew Point: 61.9 F (16.6 C)
Relative Humidity: 94%
Pressure (altimeter): 29.6 in. Hg (1002 hPa)
ob: KSYN 180915Z AUTO 36010G14KT 5SM -RA BKN008 BKN017 OVC049 18/17 A2960 RMK AO2 P0003 T01750166
cycle: 9

Station Type Date Time Source
KSYN TAF UTC NOAA

Error!

Example: see airport list